INDIA METEOROLOGICAL DEPARTMENT, R.M.C. NEW DELHI
Airport METARs
Date : 25-03-2019
Sl. # Airport METAR
1 Allahabad VEAB 241730Z VRB01KT 6000 SKC 23/13 Q1011 NOSIG=
2 Amritsar VIAR 241900Z 00000KT 1500 BR SCT040 SCT100 14/12 Q1013 NOSIG=
3 Delhi VIDP 241900Z 27005KT 4500 HZ SCT100 21/15 Q1012 NOSIG=
4 Jaipur VIJP 241900Z 36003KT 2500 HZ FEW035 SCT100 25/12 Q1012 NOSIG=
5 Lucknow VILK 241900Z 00000KT 3000 HZ NSC 20/13 Q1010 NOSIG=
6 Varanasi VEBN 241830Z 24005KT 3500 HZ NSC 24/13 Q1010 NOSIG=
7 Leh VILH 241900Z VRB02KT 6000 SCT070 BKN120 00/-1 Q1025 NOSIG=
8 Sri Nagar VISR 241900Z 22004KT 6000 SCT100 BKN200 07/02 Q1021 NOSIG=
9 Jammu VIJU 241900Z VRB02KT 6000 FEW100 SCT200 15/13 Q1012 NOSIG=
10 Jodhpur VIJO 241900Z 04005KT 6000 FEW100 SCT250 26/10 Q1013 NOSIG=
11 Jaisalmer VIJR 241900Z 36007KT 6000 FEW030 SCT100 25/10 Q1014 NOSIG=
12 Gorakhpur VEGK 241800Z 23002KT 6000 SKC 21/16 Q1010 NOSIG=
13 Agra VIAG 241800Z 00000KT 6000 FEW250 24/13 Q1011 NOSIG=
14 Chandigarh VICG 241900Z 33006KT 6000 FEW090 SCT250 17/17 Q1012 NOSIG=

 

--- End of List ---